createdAt,value
2022-10-19T00:01:12.651Z,82.52
2022-10-19T00:03:40.835Z,82.77
2022-10-19T00:06:15.747Z,82.61
2022-10-19T00:08:44.275Z,83.25
2022-10-19T00:11:12.810Z,84.05
2022-10-19T00:13:41.819Z,84.40
2022-10-19T00:16:12.343Z,85.02
2022-10-19T00:18:41.129Z,85.07
2022-10-19T00:21:11.021Z,85.46
2022-10-19T00:23:40.628Z,86.08
2022-10-19T00:26:08.911Z,87.11
2022-10-19T00:28:37.225Z,87.18
2022-10-19T00:31:05.958Z,87.43
2022-10-19T00:33:34.205Z,87.23
2022-10-19T00:36:02.559Z,87.22
2022-10-19T00:38:30.558Z,87.65
2022-10-19T00:41:00.090Z,87.03
2022-10-19T00:43:32.510Z,87.17
2022-10-19T00:46:00.938Z,86.38
2022-10-19T00:48:34.261Z,86.62
2022-10-19T00:51:03.193Z,86.78
2022-10-19T00:53:32.493Z,85.99
2022-10-19T00:56:06.727Z,85.97
2022-10-19T00:58:35.365Z,86.02
2022-10-19T01:01:07.420Z,86.04
2022-10-19T01:03:36.358Z,86.74
2022-10-19T01:06:05.356Z,86.41
2022-10-19T01:08:33.375Z,85.97
2022-10-19T01:11:16.679Z,85.52
2022-10-19T01:13:53.608Z,86.13
2022-10-19T01:16:31.115Z,86.86
2022-10-19T01:19:08.358Z,87.00
2022-10-19T01:21:43.576Z,86.98
2022-10-19T01:24:35.873Z,86.55
2022-10-19T01:27:42.232Z,86.34
2022-10-19T01:30:37.971Z,84.60
2022-10-19T01:33:29.822Z,84.00
2022-10-19T01:36:06.063Z,84.52
2022-10-19T01:38:40.914Z,86.31
2022-10-19T01:41:16.951Z,88.41
2022-10-19T01:43:50.085Z,87.46
2022-10-19T01:46:25.125Z,86.19
2022-10-19T01:48:58.077Z,86.44
2022-10-19T01:51:31.430Z,87.96
2022-10-19T01:54:04.053Z,90.72
2022-10-19T01:56:34.892Z,91.32
2022-10-19T01:59:07.834Z,92.42
2022-10-19T02:01:40.352Z,91.53
2022-10-19T02:04:09.504Z,94.18
2022-10-19T02:06:38.173Z,92.77
2022-10-19T02:09:06.615Z,91.56
2022-10-19T02:11:36.906Z,90.82
2022-10-19T02:14:10.850Z,92.73
2022-10-19T02:16:44.780Z,93.51
2022-10-19T02:19:17.032Z,92.27
2022-10-19T02:21:45.233Z,92.31
2022-10-19T02:24:13.296Z,90.86
2022-10-19T02:26:41.946Z,88.71
2022-10-19T02:29:12.050Z,88.84
2022-10-19T02:31:41.882Z,88.23
2022-10-19T02:34:10.925Z,89.18
2022-10-19T02:36:39.048Z,87.37
2022-10-19T02:39:08.457Z,88.18
2022-10-19T02:41:41.003Z,88.37
2022-10-19T02:44:15.168Z,88.34
2022-10-19T02:46:48.152Z,88.96
2022-10-19T02:49:17.330Z,88.96
2022-10-19T02:51:58.862Z,88.23
2022-10-19T02:54:27.547Z,88.25
2022-10-19T02:56:55.839Z,87.66
2022-10-19T02:59:24.363Z,87.56
2022-10-19T03:01:54.086Z,88.00
2022-10-19T03:04:22.177Z,88.58
2022-10-19T03:06:50.199Z,89.18
2022-10-19T03:09:18.527Z,90.69
2022-10-19T03:11:46.565Z,91.04
2022-10-19T03:14:14.652Z,92.39
2022-10-19T03:16:42.674Z,94.04
2022-10-19T03:19:12.354Z,98.48
2022-10-19T03:21:40.465Z,100.00
2022-10-19T03:24:08.549Z,100.00
2022-10-19T03:26:36.759Z,100.00
2022-10-19T03:29:05.534Z,100.00
2022-10-19T03:31:33.689Z,100.00
2022-10-19T03:34:02.223Z,100.00
2022-10-19T03:36:33.710Z,100.00
2022-10-19T03:39:04.473Z,100.00
2022-10-19T03:41:35.292Z,100.00
2022-10-19T03:44:03.619Z,100.00
2022-10-19T03:46:32.083Z,100.00
2022-10-19T03:49:00.220Z,100.00
2022-10-19T03:51:29.696Z,100.00
2022-10-19T03:54:01.420Z,100.00
2022-10-19T03:56:31.149Z,100.00
2022-10-19T03:59:01.349Z,100.00
2022-10-19T04:01:31.186Z,100.00
2022-10-19T04:04:01.001Z,100.00
2022-10-19T04:06:31.122Z,100.00
2022-10-19T04:09:01.130Z,100.00
2022-10-19T04:11:30.641Z,99.77
2022-10-19T04:13:59.687Z,98.92
2022-10-19T04:16:29.139Z,97.32
2022-10-19T04:18:57.448Z,96.30
2022-10-19T04:21:28.525Z,96.04
2022-10-19T04:24:01.764Z,96.22
2022-10-19T04:26:29.942Z,96.45
2022-10-19T04:28:58.886Z,96.15
2022-10-19T04:31:27.461Z,96.67
2022-10-19T04:33:55.812Z,96.84
2022-10-19T04:36:24.874Z,97.18
2022-10-19T04:38:53.262Z,97.21
2022-10-19T04:41:23.742Z,97.28
2022-10-19T04:43:57.801Z,98.22
2022-10-19T04:46:26.918Z,99.04
2022-10-19T04:48:55.643Z,98.05
2022-10-19T04:51:24.558Z,96.75
2022-10-19T04:53:55.605Z,95.81
2022-10-19T04:56:29.343Z,95.49
2022-10-19T04:58:58.570Z,96.17
2022-10-19T05:01:28.161Z,95.80
2022-10-19T05:06:32.539Z,96.72
2022-10-19T05:09:01.298Z,96.69
2022-10-19T05:11:30.728Z,96.09
2022-10-19T05:13:58.873Z,96.71
2022-10-19T05:16:27.179Z,97.61
2022-10-19T05:18:59.023Z,97.17
2022-10-19T05:21:28.932Z,97.96
2022-10-19T05:23:58.297Z,97.82
2022-10-19T05:26:29.172Z,97.02
2022-10-19T05:29:02.046Z,96.25
2022-10-19T05:31:32.306Z,95.76
2022-10-19T05:34:01.384Z,95.86
2022-10-19T05:36:34.641Z,95.85
2022-10-19T05:39:05.225Z,96.24
2022-10-19T05:41:33.606Z,96.81
2022-10-19T05:44:04.554Z,96.88
2022-10-19T05:46:33.865Z,96.08
2022-10-19T05:49:02.283Z,94.85
2022-10-19T05:51:30.658Z,93.81
2022-10-19T05:53:58.931Z,94.27
2022-10-19T05:56:29.162Z,93.26
2022-10-19T05:58:57.554Z,94.43
2022-10-19T06:01:28.365Z,93.80
2022-10-19T06:03:58.214Z,93.61
2022-10-19T06:06:27.206Z,89.57
2022-10-19T06:08:56.597Z,89.72
2022-10-19T06:11:26.879Z,89.45
2022-10-19T06:13:57.178Z,88.77
2022-10-19T06:16:28.408Z,86.81
2022-10-19T06:18:57.396Z,85.96
2022-10-19T06:21:27.605Z,83.92
2022-10-19T06:23:57.435Z,83.36
2022-10-19T06:26:26.259Z,82.60
2022-10-19T06:28:57.010Z,80.59
2022-10-19T06:31:26.601Z,81.61
2022-10-19T06:33:55.885Z,78.67
2022-10-19T06:36:27.031Z,75.77
2022-10-19T06:38:56.096Z,72.71
2022-10-19T06:41:25.189Z,75.28
2022-10-19T06:43:54.287Z,75.04
2022-10-19T06:46:24.368Z,73.51
2022-10-19T06:48:55.291Z,71.75
2022-10-19T06:51:25.559Z,71.00
2022-10-19T06:53:56.631Z,71.58
2022-10-19T06:56:25.931Z,70.07
2022-10-19T06:58:54.441Z,71.22
2022-10-19T07:01:22.963Z,70.29
2022-10-19T07:03:53.468Z,68.40
2022-10-19T07:06:22.352Z,69.21
2022-10-19T07:08:51.554Z,68.52
2022-10-19T07:11:22.772Z,65.15
2022-10-19T07:13:51.721Z,68.91
2022-10-19T07:16:21.796Z,65.34
2022-10-19T07:18:51.058Z,65.14
2022-10-19T07:21:22.456Z,63.21
2022-10-19T07:23:50.679Z,62.72
2022-10-19T07:26:21.546Z,62.72
2022-10-19T07:28:50.332Z,62.69
2022-10-19T07:31:20.765Z,63.20
2022-10-19T07:33:49.117Z,60.81
2022-10-19T07:36:17.105Z,60.19
2022-10-19T07:38:46.649Z,59.98
2022-10-19T07:41:16.598Z,59.01
2022-10-19T07:43:45.965Z,59.16
2022-10-19T07:46:16.026Z,61.05
2022-10-19T07:48:45.187Z,58.82
2022-10-19T07:51:15.273Z,59.59
2022-10-19T07:53:44.268Z,60.36
2022-10-19T07:56:15.951Z,60.16
2022-10-19T07:58:45.092Z,57.62
2022-10-19T08:01:18.693Z,59.47
2022-10-19T08:06:36.972Z,56.19
2022-10-19T08:09:05.914Z,56.54
2022-10-19T08:11:36.742Z,55.04
2022-10-19T08:14:05.399Z,54.27
2022-10-19T08:16:37.518Z,55.60
2022-10-19T08:19:08.441Z,52.95
2022-10-19T08:21:37.821Z,53.07
2022-10-19T08:24:06.403Z,53.71
2022-10-19T08:26:38.274Z,51.51
2022-10-19T08:29:08.300Z,52.01
2022-10-19T08:31:36.864Z,52.06
2022-10-19T08:34:05.773Z,52.09
2022-10-19T08:36:35.802Z,52.72
2022-10-19T08:39:06.940Z,51.04
2022-10-19T08:41:45.807Z,51.45
2022-10-19T08:44:32.259Z,50.84
2022-10-19T08:47:10.046Z,48.12
2022-10-19T08:49:40.401Z,49.40
2022-10-19T08:52:14.433Z,48.21
2022-10-19T08:54:50.564Z,48.61
2022-10-19T08:57:32.855Z,50.72
2022-10-19T09:00:07.749Z,49.58
2022-10-19T09:02:53.751Z,48.92
2022-10-19T09:05:30.414Z,47.26
2022-10-19T09:07:58.765Z,47.55
2022-10-19T09:10:29.603Z,46.46
2022-10-19T09:13:01.830Z,47.68
2022-10-19T09:15:36.162Z,46.77
2022-10-19T09:18:04.407Z,46.47
2022-10-19T09:20:38.893Z,45.66
2022-10-19T09:23:21.675Z,46.04
2022-10-19T09:25:51.560Z,45.38
2022-10-19T09:28:39.650Z,45.03
2022-10-19T09:31:13.603Z,45.60
2022-10-19T09:33:43.458Z,45.24
2022-10-19T09:36:22.475Z,45.50
2022-10-19T09:38:51.733Z,44.45
2022-10-19T09:41:22.950Z,44.55
2022-10-19T09:43:55.532Z,45.29
2022-10-19T09:46:37.978Z,44.79
2022-10-19T09:49:07.205Z,44.50
2022-10-19T09:51:50.528Z,44.87
2022-10-19T09:54:27.585Z,44.83
2022-10-19T09:56:57.490Z,43.65
2022-10-19T09:59:31.481Z,43.92
2022-10-19T10:02:16.771Z,44.32
2022-10-19T10:04:47.777Z,44.88
2022-10-19T10:07:18.171Z,42.82
2022-10-19T10:09:47.278Z,42.37
2022-10-19T10:12:17.223Z,42.87
2022-10-19T10:14:47.275Z,42.11
2022-10-19T10:17:19.350Z,44.94
2022-10-19T10:20:06.032Z,44.45
2022-10-19T10:22:36.941Z,44.37
2022-10-19T10:25:15.259Z,43.82
2022-10-19T10:27:44.809Z,43.63
2022-10-19T10:30:19.699Z,44.24
2022-10-19T10:32:50.782Z,44.67
2022-10-19T10:35:23.010Z,45.98
2022-10-19T10:37:51.639Z,44.24
2022-10-19T10:40:24.357Z,42.92
2022-10-19T10:42:55.450Z,45.17
2022-10-19T10:45:30.738Z,46.49
2022-10-19T10:48:01.940Z,45.19
2022-10-19T10:50:35.845Z,44.76
2022-10-19T10:53:04.797Z,44.33
2022-10-19T10:55:34.495Z,43.26
2022-10-19T10:58:15.557Z,45.42
2022-10-19T11:00:47.079Z,46.63
2022-10-19T11:03:21.089Z,45.14
2022-10-19T11:05:54.617Z,43.38
2022-10-19T11:08:28.984Z,44.95
2022-10-19T11:11:01.890Z,44.75
2022-10-19T11:13:34.569Z,45.61
2022-10-19T11:16:13.150Z,43.71
2022-10-19T11:18:46.009Z,44.27
2022-10-19T11:21:19.325Z,41.36
2022-10-19T11:23:57.921Z,42.26
2022-10-19T11:26:42.043Z,41.29
2022-10-19T11:29:20.989Z,39.51
2022-10-19T11:31:53.154Z,41.58
2022-10-19T11:34:38.040Z,40.05
2022-10-19T11:37:20.809Z,40.34
2022-10-19T11:40:02.495Z,40.91
2022-10-19T11:45:30.152Z,41.71
2022-10-19T11:48:17.666Z,40.86
2022-10-19T11:50:58.584Z,41.59
2022-10-19T11:53:41.373Z,43.34
2022-10-19T11:56:15.097Z,41.75
2022-10-19T11:58:55.056Z,40.26
2022-10-19T12:01:39.241Z,39.79
2022-10-19T12:04:36.863Z,41.66
2022-10-19T12:07:19.706Z,40.39
2022-10-19T12:09:56.474Z,41.21
2022-10-19T12:12:33.206Z,40.83
2022-10-19T12:15:13.405Z,42.00
2022-10-19T12:17:46.294Z,43.69
2022-10-19T12:20:23.792Z,41.62
2022-10-19T12:22:52.697Z,41.39
2022-10-19T12:25:22.229Z,39.58
2022-10-19T12:27:51.794Z,39.69
2022-10-19T12:30:21.832Z,40.89
2022-10-19T12:32:59.647Z,42.03
2022-10-19T12:35:41.475Z,41.87
2022-10-19T12:38:18.338Z,42.77
2022-10-19T12:40:53.102Z,42.92
2022-10-19T12:43:28.212Z,43.24
2022-10-19T12:46:09.462Z,46.06
2022-10-19T12:48:39.412Z,41.69
2022-10-19T12:51:20.922Z,42.96
2022-10-19T12:53:50.788Z,42.30
2022-10-19T12:56:24.472Z,43.43
2022-10-19T12:58:58.088Z,43.99
2022-10-19T13:01:29.519Z,43.70
2022-10-19T13:04:12.341Z,44.32
2022-10-19T13:06:45.075Z,43.88
2022-10-19T13:09:25.894Z,44.57
2022-10-19T13:12:30.259Z,44.36
2022-10-19T13:14:59.497Z,46.30
2022-10-19T13:17:44.149Z,44.99
2022-10-19T13:20:51.512Z,45.32
2022-10-19T13:23:43.121Z,44.43
2022-10-19T13:26:32.478Z,45.19
2022-10-19T13:29:01.717Z,45.36
2022-10-19T13:31:34.748Z,44.57
2022-10-19T13:34:12.219Z,45.27
2022-10-19T13:36:40.908Z,44.65
2022-10-19T13:39:17.718Z,45.23
2022-10-19T13:41:49.602Z,45.22
2022-10-19T13:44:25.529Z,45.61
2022-10-19T13:47:05.589Z,45.54
2022-10-19T13:49:44.851Z,45.47
2022-10-19T13:52:42.875Z,46.69
2022-10-19T13:55:47.726Z,47.32
2022-10-19T13:58:32.561Z,45.84
2022-10-19T14:01:14.766Z,48.10
2022-10-19T14:04:10.070Z,47.14
2022-10-19T14:06:45.070Z,48.22
2022-10-19T14:09:56.126Z,48.66
2022-10-19T14:12:27.846Z,47.82
2022-10-19T14:14:56.520Z,47.07
2022-10-19T14:17:28.301Z,47.49
2022-10-19T14:19:58.658Z,47.51
2022-10-19T14:22:30.314Z,47.58
2022-10-19T14:25:03.749Z,48.08
2022-10-19T14:27:35.263Z,47.96
2022-10-19T14:30:05.533Z,48.15
2022-10-19T14:32:35.831Z,47.52
2022-10-19T14:35:19.362Z,47.84
2022-10-19T14:37:48.061Z,47.38
2022-10-19T14:40:29.492Z,47.81
2022-10-19T14:43:00.505Z,48.67
2022-10-19T14:45:30.981Z,48.89
2022-10-19T14:48:01.942Z,49.33
2022-10-19T14:50:41.578Z,49.33
2022-10-19T14:53:28.155Z,50.48
2022-10-19T14:55:59.530Z,52.00
2022-10-19T14:58:41.957Z,51.49
2022-10-19T15:01:12.266Z,52.01
2022-10-19T15:03:44.403Z,52.02
2022-10-19T15:06:19.115Z,52.13
2022-10-19T15:08:50.982Z,53.22
2022-10-19T15:11:27.024Z,53.79
2022-10-19T15:14:04.292Z,54.50
2022-10-19T15:16:41.590Z,54.74
2022-10-19T15:19:18.715Z,55.40
2022-10-19T15:21:47.411Z,55.24
2022-10-19T15:24:27.528Z,54.48
2022-10-19T15:27:08.716Z,55.03
2022-10-19T15:29:39.000Z,54.72
2022-10-19T15:32:22.392Z,53.60
2022-10-19T15:34:50.544Z,53.57
2022-10-19T15:37:22.018Z,53.33
2022-10-19T15:39:51.250Z,54.03
2022-10-19T15:42:35.233Z,53.41
2022-10-19T15:45:05.254Z,54.33
2022-10-19T15:47:34.049Z,57.41
2022-10-19T15:50:03.679Z,56.29
2022-10-19T15:52:34.598Z,57.12
2022-10-19T15:55:03.632Z,56.92
2022-10-19T15:57:34.166Z,56.51
2022-10-19T16:00:12.226Z,54.91
2022-10-19T16:02:40.952Z,55.14
2022-10-19T16:05:09.903Z,58.61
2022-10-19T16:07:40.474Z,58.06
2022-10-19T16:10:10.051Z,56.68
2022-10-19T16:12:38.133Z,57.18
2022-10-19T16:15:08.921Z,56.39
2022-10-19T16:17:37.611Z,59.52
2022-10-19T16:20:07.584Z,59.44
2022-10-19T16:22:35.725Z,57.46
2022-10-19T16:25:03.920Z,56.91
2022-10-19T16:27:32.357Z,56.00
2022-10-19T16:30:00.922Z,56.10
2022-10-19T16:32:30.615Z,57.77
2022-10-19T16:34:58.728Z,58.55
2022-10-19T16:37:26.828Z,60.79
2022-10-19T16:39:54.954Z,61.24
2022-10-19T16:42:25.639Z,61.77
2022-10-19T16:44:56.391Z,61.25
2022-10-19T16:47:24.382Z,60.15
2022-10-19T16:49:59.215Z,60.00
2022-10-19T16:52:27.379Z,58.92
2022-10-19T16:54:55.678Z,58.00
2022-10-19T16:57:23.690Z,58.92
2022-10-19T17:02:22.813Z,62.75
2022-10-19T17:04:51.232Z,63.53
2022-10-19T17:07:20.765Z,62.06
2022-10-19T17:09:52.203Z,63.83
2022-10-19T17:12:22.663Z,62.79
2022-10-19T17:14:51.444Z,61.58
2022-10-19T17:17:19.518Z,61.38
2022-10-19T17:19:48.579Z,61.65
2022-10-19T17:22:16.901Z,61.83
2022-10-19T17:24:47.525Z,62.16
2022-10-19T17:27:15.706Z,62.57
2022-10-19T17:29:44.054Z,62.49
2022-10-19T17:32:12.165Z,62.10
2022-10-19T17:34:40.266Z,64.47
2022-10-19T17:37:08.424Z,62.30
2022-10-19T17:39:36.510Z,61.23
2022-10-19T17:42:06.025Z,60.28
2022-10-19T17:44:34.102Z,58.23
2022-10-19T17:47:02.402Z,56.99
2022-10-19T17:49:30.968Z,57.86
2022-10-19T17:51:59.879Z,58.91
2022-10-19T17:54:28.115Z,59.34
2022-10-19T17:56:56.203Z,59.96
2022-10-19T17:59:34.806Z,58.08
2022-10-19T18:02:03.786Z,58.41
2022-10-19T18:04:31.968Z,58.80
2022-10-19T18:07:00.145Z,57.96
2022-10-19T18:09:28.239Z,57.53
2022-10-19T18:11:56.217Z,57.33
2022-10-19T18:14:25.867Z,62.09
2022-10-19T18:16:54.036Z,61.95
2022-10-19T18:19:22.098Z,62.09
2022-10-19T18:21:50.245Z,63.61
2022-10-19T18:24:21.524Z,63.76
2022-10-19T18:26:50.787Z,63.08
2022-10-19T18:29:21.086Z,61.20
2022-10-19T18:31:52.315Z,63.24
2022-10-19T18:34:22.564Z,60.43
2022-10-19T18:36:51.037Z,60.58
2022-10-19T18:39:20.008Z,61.93
2022-10-19T18:41:51.905Z,62.85
2022-10-19T18:44:25.211Z,60.51
2022-10-19T18:46:57.574Z,60.82
2022-10-19T18:49:26.066Z,62.76
2022-10-19T18:51:55.791Z,61.61
2022-10-19T18:54:24.839Z,60.96
2022-10-19T18:56:53.172Z,61.02
2022-10-19T18:59:21.255Z,61.39
2022-10-19T19:01:49.426Z,60.00
2022-10-19T19:04:18.890Z,59.25
2022-10-19T19:06:46.908Z,58.69
2022-10-19T19:09:15.265Z,60.04
2022-10-19T19:11:43.423Z,61.21
2022-10-19T19:14:13.911Z,65.20
2022-10-19T19:16:43.959Z,66.23
2022-10-19T19:19:14.007Z,65.89
2022-10-19T19:21:45.062Z,65.64
2022-10-19T19:24:15.721Z,66.92
2022-10-19T19:26:47.750Z,66.80
2022-10-19T19:29:16.151Z,66.71
2022-10-19T19:31:44.367Z,67.82
2022-10-19T19:34:12.909Z,68.21
2022-10-19T19:36:47.512Z,68.67
2022-10-19T19:39:20.104Z,68.56
2022-10-19T19:41:49.470Z,70.55
2022-10-19T19:44:17.901Z,70.86
2022-10-19T19:46:45.883Z,70.75
2022-10-19T19:49:14.936Z,68.22
2022-10-19T19:51:43.213Z,68.01
2022-10-19T19:54:11.640Z,68.16
2022-10-19T19:56:42.544Z,67.43
2022-10-19T19:59:12.063Z,70.73
2022-10-19T20:01:40.467Z,69.08
2022-10-19T20:04:08.882Z,68.47
2022-10-19T20:06:39.361Z,69.05
2022-10-19T20:09:09.297Z,69.46
2022-10-19T20:11:42.030Z,68.50
2022-10-19T20:14:12.107Z,70.34
2022-10-19T20:16:40.344Z,68.91
2022-10-19T20:19:11.139Z,67.72
2022-10-19T20:21:40.006Z,67.83
2022-10-19T20:24:09.058Z,67.81
2022-10-19T20:26:37.462Z,68.92
2022-10-19T20:29:06.179Z,69.54
2022-10-19T20:31:39.689Z,69.89
2022-10-19T20:34:10.180Z,69.00
2022-10-19T20:36:38.306Z,68.65
2022-10-19T20:39:06.323Z,71.28
2022-10-19T20:41:34.392Z,72.93
2022-10-19T20:44:02.830Z,70.08
2022-10-19T20:46:31.493Z,69.25
2022-10-19T20:49:02.912Z,68.46
2022-10-19T20:51:32.725Z,69.68
2022-10-19T20:54:02.320Z,70.03
2022-10-19T20:56:32.272Z,71.10
2022-10-19T21:01:35.104Z,71.66
2022-10-19T21:04:06.593Z,70.89
2022-10-19T21:06:38.242Z,70.55
2022-10-19T21:09:06.549Z,69.95
2022-10-19T21:11:36.386Z,69.46
2022-10-19T21:14:06.347Z,69.76
2022-10-19T21:16:35.437Z,70.31
2022-10-19T21:19:07.224Z,70.21
2022-10-19T21:21:37.251Z,71.63
2022-10-19T21:24:07.433Z,72.31
2022-10-19T21:26:37.122Z,72.43
2022-10-19T21:29:07.354Z,72.29
2022-10-19T21:31:35.429Z,73.50
2022-10-19T21:34:07.623Z,72.02
2022-10-19T21:36:36.052Z,71.42
2022-10-19T21:39:04.521Z,70.47
2022-10-19T21:41:33.442Z,71.66
2022-10-19T21:44:01.837Z,71.85
2022-10-19T21:46:30.310Z,62.55
2022-10-19T21:48:58.578Z,69.34
2022-10-19T21:51:34.826Z,69.22
2022-10-19T21:54:03.820Z,69.73
2022-10-19T21:56:32.340Z,70.81
2022-10-19T21:59:00.817Z,70.41
2022-10-19T22:01:30.778Z,69.03
2022-10-19T22:03:59.956Z,69.59
2022-10-19T22:06:29.958Z,69.40
2022-10-19T22:09:00.147Z,70.24
2022-10-19T22:11:28.923Z,72.17
2022-10-19T22:13:58.570Z,73.42
2022-10-19T22:16:27.404Z,72.63
2022-10-19T22:18:56.411Z,74.27
2022-10-19T22:21:26.911Z,73.10
2022-10-19T22:23:57.494Z,73.61
2022-10-19T22:26:28.742Z,72.41
2022-10-19T22:28:57.900Z,72.19
2022-10-19T22:31:26.767Z,72.05
2022-10-19T22:33:55.081Z,72.42
2022-10-19T22:36:23.666Z,72.17
2022-10-19T22:38:51.763Z,70.49
2022-10-19T22:41:19.818Z,68.96
2022-10-19T22:43:49.280Z,72.48
2022-10-19T22:46:17.336Z,72.37
2022-10-19T22:48:45.394Z,72.96
2022-10-19T22:51:13.739Z,72.94
2022-10-19T22:53:41.789Z,73.90
2022-10-19T22:56:12.454Z,72.64
2022-10-19T22:58:41.038Z,73.49
2022-10-19T23:01:13.296Z,75.07
2022-10-19T23:03:41.724Z,75.63
2022-10-19T23:06:12.078Z,75.36
2022-10-19T23:08:40.659Z,75.24
2022-10-19T23:11:09.145Z,75.76
2022-10-19T23:13:37.441Z,77.21
2022-10-19T23:16:05.860Z,75.84
2022-10-19T23:18:36.518Z,74.96
2022-10-19T23:21:06.730Z,74.08
2022-10-19T23:23:35.367Z,75.06
2022-10-19T23:26:05.159Z,71.25
2022-10-19T23:28:35.158Z,73.03
2022-10-19T23:31:06.147Z,75.27
2022-10-19T23:33:36.566Z,76.92
2022-10-19T23:36:06.626Z,76.57
2022-10-19T23:38:34.989Z,76.58
2022-10-19T23:41:03.614Z,76.55
2022-10-19T23:43:31.582Z,79.51
2022-10-19T23:45:59.602Z,73.28
2022-10-19T23:48:27.880Z,73.42
2022-10-19T23:51:02.016Z,72.30
2022-10-19T23:53:30.730Z,72.06
2022-10-19T23:56:02.342Z,70.40
2022-10-19T23:58:30.866Z,71.27
